createdAt,value
2019-05-10T00:02:38.690Z,100253.84
2019-05-10T00:06:04.927Z,100260.41
2019-05-10T00:09:12.691Z,100263.56
2019-05-10T00:12:42.971Z,100266.00
2019-05-10T00:16:09.816Z,100258.09
2019-05-10T00:19:18.523Z,100260.48
2019-05-10T00:22:27.268Z,100260.38
2019-05-10T00:25:36.082Z,100263.04
2019-05-10T00:28:44.893Z,100261.52
2019-05-10T00:31:53.544Z,100260.87
2019-05-10T00:35:02.358Z,100258.47
2019-05-10T00:38:11.124Z,100255.55
2019-05-10T00:41:20.048Z,100260.78
2019-05-10T00:44:28.760Z,100262.88
2019-05-10T00:47:37.387Z,100263.44
2019-05-10T00:50:46.110Z,100255.70
2019-05-10T00:53:54.635Z,100258.59
2019-05-10T00:57:03.279Z,100259.58
2019-05-10T01:00:13.493Z,100253.54
2019-05-10T01:03:51.712Z,100262.93
2019-05-10T01:07:00.345Z,100268.68
2019-05-10T01:10:09.229Z,100261.38
2019-05-10T01:13:17.894Z,100268.92
2019-05-10T01:16:26.597Z,100280.14
2019-05-10T01:19:35.252Z,100287.38
2019-05-10T01:22:43.865Z,100282.81
2019-05-10T01:25:52.595Z,100276.65
2019-05-10T01:29:01.165Z,100282.38
2019-05-10T01:32:09.904Z,100286.12
2019-05-10T01:35:18.644Z,100291.54
2019-05-10T01:38:37.465Z,100288.07
2019-05-10T01:41:46.083Z,100297.83
2019-05-10T01:44:54.680Z,100306.05
2019-05-10T01:48:03.223Z,100299.19
2019-05-10T01:51:11.851Z,100301.47
2019-05-10T01:54:20.473Z,100304.70
2019-05-10T01:57:29.098Z,100307.16
2019-05-10T02:00:48.023Z,100317.06
2019-05-10T02:03:56.635Z,100315.53
2019-05-10T02:07:05.300Z,100326.47
2019-05-10T02:10:14.214Z,100318.97
2019-05-10T02:13:22.721Z,100311.81
2019-05-10T02:16:31.547Z,100323.58
2019-05-10T02:19:40.315Z,100334.09
2019-05-10T02:22:48.976Z,100330.22
2019-05-10T02:26:09.082Z,100329.59
2019-05-10T02:29:08.033Z,100332.09
2019-05-10T02:32:16.731Z,100331.33
2019-05-10T02:35:25.545Z,100339.34
2019-05-10T02:38:34.328Z,100343.38
2019-05-10T02:41:44.468Z,100342.64
2019-05-10T02:45:03.730Z,100345.11
2019-05-10T02:48:12.540Z,100348.86
2019-05-10T02:51:31.930Z,100341.70
2019-05-10T02:54:40.648Z,100348.02
2019-05-10T02:57:49.538Z,100352.36
2019-05-10T03:01:01.826Z,100366.08
2019-05-10T03:04:23.322Z,100360.66
2019-05-10T03:07:37.337Z,100364.00
2019-05-10T03:10:57.867Z,100362.54
2019-05-10T03:14:21.144Z,100371.67
2019-05-10T03:17:30.166Z,100377.64
2019-05-10T03:20:40.112Z,100389.30
2019-05-10T03:23:50.665Z,100388.38
2019-05-10T03:26:59.255Z,100393.89
2019-05-10T03:30:06.955Z,100394.85
2019-05-10T03:33:12.745Z,100409.84
2019-05-10T03:36:21.337Z,100401.21
2019-05-10T03:39:31.436Z,100403.06
2019-05-10T03:42:40.029Z,100409.10
2019-05-10T03:45:48.652Z,100403.69
2019-05-10T03:48:55.889Z,100410.06
2019-05-10T03:52:04.595Z,100408.16
2019-05-10T03:55:13.418Z,100411.28
2019-05-10T03:58:32.225Z,100412.95
2019-05-10T04:01:40.791Z,100422.88
2019-05-10T04:04:49.588Z,100419.09
2019-05-10T04:07:58.344Z,100413.58
2019-05-10T04:11:06.983Z,100418.34
2019-05-10T04:14:15.623Z,100418.97
2019-05-10T04:17:24.174Z,100411.57
2019-05-10T04:20:32.887Z,100423.14
2019-05-10T04:23:41.113Z,100418.03
2019-05-10T04:26:49.821Z,100415.39
2019-05-10T04:29:58.722Z,100429.25
2019-05-10T04:33:07.431Z,100431.34
2019-05-10T04:36:16.160Z,100433.00
2019-05-10T04:39:24.813Z,100443.66
2019-05-10T04:42:33.462Z,100449.47
2019-05-10T04:45:40.640Z,100448.22
2019-05-10T04:48:49.377Z,100454.16
2019-05-10T04:51:57.986Z,100460.41
2019-05-10T04:55:07.522Z,100465.02
2019-05-10T04:58:16.207Z,100463.25
2019-05-10T05:01:24.943Z,100462.72
2019-05-10T05:04:33.676Z,100455.45
2019-05-10T05:07:42.334Z,100458.16
2019-05-10T05:10:51.023Z,100460.66
2019-05-10T05:13:59.724Z,100457.84
2019-05-10T05:17:08.392Z,100465.56
2019-05-10T05:20:17.046Z,100469.31
2019-05-10T05:23:24.310Z,100469.31
2019-05-10T05:26:33.048Z,100476.08
2019-05-10T05:29:41.835Z,100473.06
2019-05-10T05:32:52.855Z,100481.81
2019-05-10T05:36:02.359Z,100484.70
2019-05-10T05:39:11.391Z,100485.36
2019-05-10T05:42:22.290Z,100492.11
2019-05-10T05:45:42.001Z,100494.92
2019-05-10T05:48:51.552Z,100494.19
2019-05-10T05:52:00.328Z,100498.75
2019-05-10T05:55:09.519Z,100503.97
2019-05-10T05:58:26.470Z,100502.69
2019-05-10T06:01:29.563Z,100503.42
2019-05-10T06:04:40.930Z,100499.25
2019-05-10T06:07:52.138Z,100506.76
2019-05-10T06:11:00.076Z,100511.14
2019-05-10T06:14:12.533Z,100509.67
2019-05-10T06:17:23.708Z,100519.55
2019-05-10T06:20:29.712Z,100520.41
2019-05-10T06:23:38.414Z,100527.08
2019-05-10T06:26:47.070Z,100521.25
2019-05-10T06:29:55.774Z,100522.16
2019-05-10T06:33:12.704Z,100524.78
2019-05-10T06:36:14.782Z,100535.73
2019-05-10T06:39:23.575Z,100538.63
2019-05-10T06:42:51.447Z,100541.86
2019-05-10T06:46:00.064Z,100544.58
2019-05-10T06:49:09.665Z,100550.64
2019-05-10T06:52:21.894Z,100556.48
2019-05-10T06:55:28.053Z,100550.30
2019-05-10T06:58:46.988Z,100558.75
2019-05-10T07:01:55.788Z,100557.20
2019-05-10T07:05:04.871Z,100562.63
2019-05-10T07:08:23.901Z,100566.48
2019-05-10T07:11:51.994Z,100571.07
2019-05-10T07:15:03.289Z,100572.44
2019-05-10T07:18:11.037Z,100583.05
2019-05-10T07:21:19.675Z,100583.58
2019-05-10T07:24:28.418Z,100591.89
2019-05-10T07:27:38.674Z,100595.75
2019-05-10T07:30:48.751Z,100604.83
2019-05-10T07:33:57.368Z,100601.49
2019-05-10T07:37:06.039Z,100595.33
2019-05-10T07:40:14.901Z,100599.39
2019-05-10T07:43:26.400Z,100603.05
2019-05-10T07:46:33.916Z,100602.50
2019-05-10T07:49:52.819Z,100605.69
2019-05-10T07:53:01.470Z,100604.02
2019-05-10T07:56:10.182Z,100601.43
2019-05-10T07:59:21.985Z,100599.83
2019-05-10T08:02:29.258Z,100601.38
2019-05-10T08:05:39.160Z,100615.28
2019-05-10T08:08:49.658Z,100618.62
2019-05-10T08:12:03.326Z,100627.82
2019-05-10T08:15:09.697Z,100633.23
2019-05-10T08:18:23.479Z,100631.40
2019-05-10T08:21:28.787Z,100632.95
2019-05-10T08:24:37.387Z,100635.55
2019-05-10T08:27:50.419Z,100635.86
2019-05-10T08:30:58.888Z,100641.09
2019-05-10T08:34:05.287Z,100643.38
2019-05-10T08:37:19.322Z,100647.97
2019-05-10T08:40:26.058Z,100653.80
2019-05-10T08:43:38.759Z,100656.41
2019-05-10T08:46:46.637Z,100667.25
2019-05-10T08:50:10.851Z,100674.34
2019-05-10T08:53:10.943Z,100676.73
2019-05-10T08:56:21.586Z,100681.66
2019-05-10T08:59:30.678Z,100680.39
2019-05-10T09:02:36.349Z,100680.39
2019-05-10T09:05:55.367Z,100689.66
2019-05-10T09:09:08.507Z,100695.41
2019-05-10T09:12:17.370Z,100699.16
2019-05-10T09:15:26.148Z,100704.98
2019-05-10T09:18:38.077Z,100707.69
2019-05-10T09:21:49.695Z,100723.02
2019-05-10T09:24:55.498Z,100728.64
2019-05-10T09:28:11.722Z,100730.09
2019-05-10T09:31:20.836Z,100736.44
2019-05-10T09:34:27.136Z,100738.58
2019-05-10T09:37:35.242Z,100745.15
2019-05-10T09:40:51.246Z,100754.89
2019-05-10T09:43:54.351Z,100754.11
2019-05-10T09:47:03.875Z,100764.01
2019-05-10T09:50:12.743Z,100769.31
2019-05-10T09:53:25.630Z,100778.33
2019-05-10T09:56:32.905Z,100793.86
2019-05-10T09:59:42.027Z,100792.73
2019-05-10T10:02:56.454Z,100784.99
2019-05-10T10:06:07.434Z,100790.53
2019-05-10T10:09:11.338Z,100794.96
2019-05-10T10:12:20.188Z,100801.58
2019-05-10T10:15:33.927Z,100805.34
2019-05-10T10:18:39.245Z,100809.97
2019-05-10T10:21:47.868Z,100809.24
2019-05-10T10:25:07.467Z,100806.33
2019-05-10T10:28:19.116Z,100813.56
2019-05-10T10:31:33.176Z,100819.87
2019-05-10T10:34:42.818Z,100824.91
2019-05-10T10:37:49.002Z,100828.08
2019-05-10T10:40:57.758Z,100834.34
2019-05-10T10:44:08.422Z,100828.34
2019-05-10T10:47:17.966Z,100835.00
2019-05-10T10:50:37.036Z,100847.95
2019-05-10T10:53:47.012Z,100854.20
2019-05-10T10:56:59.247Z,100849.53
2019-05-10T11:00:07.742Z,100856.81
2019-05-10T11:03:17.767Z,100861.22
2019-05-10T11:06:26.473Z,100870.23
2019-05-10T11:09:35.709Z,100869.49
2019-05-10T11:12:44.390Z,100876.52
2019-05-10T11:15:53.051Z,100879.05
2019-05-10T11:19:03.886Z,100876.32
2019-05-10T11:22:11.943Z,100888.45
2019-05-10T11:25:30.760Z,100897.22
2019-05-10T11:28:43.848Z,100891.27
2019-05-10T11:32:10.432Z,100902.64
2019-05-10T11:35:00.190Z,100902.39
2019-05-10T11:38:12.948Z,100897.84
2019-05-10T11:41:24.513Z,100903.03
2019-05-10T11:44:33.330Z,100904.99
2019-05-10T11:47:41.973Z,100909.64
2019-05-10T11:50:51.332Z,100907.37
2019-05-10T11:54:01.789Z,100914.69
2019-05-10T11:57:13.832Z,100920.70
2019-05-10T12:00:28.408Z,100931.15
2019-05-10T12:03:31.889Z,100928.43
2019-05-10T12:06:49.505Z,100939.34
2019-05-10T12:13:15.070Z,100944.52
2019-05-10T12:16:16.810Z,100951.55
2019-05-10T12:19:24.449Z,100957.34
2019-05-10T12:22:38.314Z,100966.96
2019-05-10T12:25:59.001Z,100963.26
2019-05-10T12:26:15.570Z,100938.05
2019-05-10T12:28:53.820Z,100968.06
2019-05-10T12:32:02.484Z,100966.55
2019-05-10T12:35:11.872Z,100964.19
2019-05-10T12:38:31.826Z,100967.72
2019-05-10T12:41:48.371Z,100973.73
2019-05-10T12:44:55.404Z,100977.47
2019-05-10T12:48:02.043Z,100976.53
2019-05-10T12:51:12.571Z,100976.48
2019-05-10T12:54:23.699Z,100980.81
2019-05-10T12:57:28.465Z,100978.44
2019-05-10T13:00:37.189Z,100988.77
2019-05-10T13:03:45.864Z,100991.48
2019-05-10T13:06:54.511Z,100998.23
2019-05-10T13:10:07.681Z,101004.33
2019-05-10T13:13:17.446Z,101014.44
2019-05-10T13:16:39.364Z,101014.48
2019-05-10T13:19:52.880Z,101019.77
2019-05-10T13:22:58.158Z,101036.67
2019-05-10T13:26:06.769Z,101035.80
2019-05-10T13:29:25.649Z,101032.09
2019-05-10T13:32:34.373Z,101038.73
2019-05-10T13:35:44.037Z,101042.29
2019-05-10T13:38:52.709Z,101057.67
2019-05-10T13:42:03.342Z,101054.88
2019-05-10T13:45:11.810Z,101054.30
2019-05-10T13:48:20.469Z,101069.09
2019-05-10T13:51:39.302Z,101065.42
2019-05-10T13:54:47.973Z,101072.72
2019-05-10T13:57:56.679Z,101074.53
2019-05-10T14:01:06.523Z,101081.50
2019-05-10T14:04:15.835Z,101074.70
2019-05-10T14:07:24.665Z,101077.14
2019-05-10T14:10:33.316Z,101074.83
2019-05-10T14:13:43.191Z,101081.50
2019-05-10T14:16:51.958Z,101078.34
2019-05-10T14:20:02.265Z,101085.25
2019-05-10T14:23:21.057Z,101089.51
2019-05-10T14:26:29.727Z,101093.58
2019-05-10T14:29:38.428Z,101104.56
2019-05-10T14:32:47.120Z,101105.66
2019-05-10T14:36:01.038Z,101107.05
2019-05-10T14:39:07.991Z,101110.09
2019-05-10T14:42:16.557Z,101105.66
2019-05-10T14:45:25.250Z,101099.27
2019-05-10T14:48:35.523Z,101113.16
2019-05-10T14:51:58.314Z,101113.24
2019-05-10T14:54:56.824Z,101116.84
2019-05-10T14:58:05.279Z,101121.95
2019-05-10T15:01:13.848Z,101119.91
2019-05-10T15:04:43.660Z,101127.02
2019-05-10T15:07:32.889Z,101131.78
2019-05-10T15:10:41.816Z,101133.30
2019-05-10T15:13:50.669Z,101135.37
2019-05-10T15:16:59.279Z,101146.44
2019-05-10T15:20:08.341Z,101141.79
2019-05-10T15:23:16.955Z,101149.22
2019-05-10T15:26:25.671Z,101145.02
2019-05-10T15:29:34.510Z,101161.56
2019-05-10T15:32:41.630Z,101159.16
2019-05-10T15:35:51.706Z,101165.84
2019-05-10T15:39:00.610Z,101163.26
2019-05-10T15:42:22.044Z,101164.17
2019-05-10T15:45:30.764Z,101170.68
2019-05-10T15:48:41.706Z,101173.69
2019-05-10T15:51:56.809Z,101166.56
2019-05-10T15:55:00.168Z,101173.56
2019-05-10T15:58:08.800Z,101166.29
2019-05-10T16:01:29.160Z,101176.64
2019-05-10T16:04:48.452Z,101176.50
2019-05-10T16:07:57.126Z,101176.19
2019-05-10T16:11:18.001Z,101188.50
2019-05-10T16:14:16.190Z,101191.90
2019-05-10T16:17:24.833Z,101194.30
2019-05-10T16:20:37.179Z,101199.48
2019-05-10T16:23:46.664Z,101199.81
2019-05-10T16:26:54.617Z,101206.07
2019-05-10T16:30:06.177Z,101215.96
2019-05-10T16:33:15.748Z,101212.20
2019-05-10T16:36:28.483Z,101218.86
2019-05-10T16:39:35.540Z,101216.73
2019-05-10T16:42:47.793Z,101226.02
2019-05-10T16:45:57.421Z,101219.40
2019-05-10T16:49:17.343Z,101224.29
2019-05-10T16:52:27.925Z,101235.72
2019-05-10T16:55:35.478Z,101237.59
2019-05-10T16:58:47.639Z,101239.33
2019-05-10T17:02:03.384Z,101235.16
2019-05-10T17:05:09.681Z,101231.77
2019-05-10T17:08:18.055Z,101230.81
2019-05-10T17:11:26.628Z,101235.56
2019-05-10T17:14:45.501Z,101237.79
2019-05-10T17:17:54.418Z,101252.11
2019-05-10T17:21:04.498Z,101250.66
2019-05-10T17:24:13.133Z,101256.31
2019-05-10T17:27:21.770Z,101264.56
2019-05-10T17:30:30.476Z,101266.44
2019-05-10T17:33:42.819Z,101263.09
2019-05-10T17:36:51.573Z,101269.31
2019-05-10T17:40:04.856Z,101273.38
2019-05-10T17:43:14.153Z,101270.16
2019-05-10T17:46:21.713Z,101272.55
2019-05-10T17:49:30.462Z,101273.38
2019-05-10T17:52:58.296Z,101275.81
2019-05-10T17:56:06.874Z,101275.95
2019-05-10T17:59:15.547Z,101278.41
2019-05-10T18:02:24.699Z,101282.71
2019-05-10T18:05:46.479Z,101277.48
2019-05-10T18:08:54.291Z,101284.53
2019-05-10T18:12:02.982Z,101280.33
2019-05-10T18:15:12.119Z,101278.72
2019-05-10T18:18:20.706Z,101281.97
2019-05-10T18:21:29.357Z,101278.36
2019-05-10T18:24:42.254Z,101286.86
2019-05-10T18:27:48.277Z,101281.84
2019-05-10T18:30:56.868Z,101278.29
2019-05-10T18:34:05.441Z,101286.97
2019-05-10T18:37:15.958Z,101297.64
2019-05-10T18:40:40.546Z,101296.11
2019-05-10T18:43:49.154Z,101296.31
2019-05-10T18:46:57.791Z,101290.82
2019-05-10T18:50:08.992Z,101306.76
2019-05-10T18:53:47.199Z,101307.75
2019-05-10T18:56:55.822Z,101305.65
2019-05-10T19:00:04.580Z,101305.34
2019-05-10T19:03:13.372Z,101315.85
2019-05-10T19:06:21.895Z,101320.93
2019-05-10T19:09:30.502Z,101322.27
2019-05-10T19:12:39.521Z,101324.28
2019-05-10T19:15:53.101Z,101325.81
2019-05-10T19:19:02.025Z,101320.22
2019-05-10T19:22:10.234Z,101334.52
2019-05-10T19:25:19.144Z,101330.62
2019-05-10T19:28:28.520Z,101339.06
2019-05-10T19:31:40.301Z,101339.09
2019-05-10T19:34:48.469Z,101349.56
2019-05-10T19:37:57.593Z,101355.02
2019-05-10T19:41:06.334Z,101357.07
2019-05-10T19:44:14.939Z,101352.23
2019-05-10T19:47:33.976Z,101353.25
2019-05-10T19:50:42.493Z,101353.33
2019-05-10T19:53:51.038Z,101358.78
2019-05-10T19:56:59.712Z,101355.40
2019-05-10T20:00:08.629Z,101357.43
2019-05-10T20:03:17.159Z,101360.14
2019-05-10T20:06:25.671Z,101359.00
2019-05-10T20:09:34.297Z,101368.63
2019-05-10T20:12:53.096Z,101360.36
2019-05-10T20:16:01.862Z,101366.78
2019-05-10T20:19:10.422Z,101372.22
2019-05-10T20:22:18.957Z,101378.00
2019-05-10T20:25:27.576Z,101376.06
2019-05-10T20:28:36.235Z,101380.92
2019-05-10T20:31:44.793Z,101387.67
2019-05-10T20:34:53.453Z,101381.12
2019-05-10T20:38:12.436Z,101381.42
2019-05-10T20:41:21.117Z,101390.23
2019-05-10T20:44:29.997Z,101387.36
2019-05-10T20:47:38.171Z,101391.58
2019-05-10T20:50:46.722Z,101396.13
2019-05-10T20:53:55.289Z,101389.22
2019-05-10T20:57:14.084Z,101383.31
2019-05-10T21:00:24.102Z,101405.94
2019-05-10T21:03:32.863Z,101402.56
2019-05-10T21:06:41.392Z,101402.93
2019-05-10T21:09:49.947Z,101400.91
2019-05-10T21:12:58.466Z,101406.80
2019-05-10T21:16:17.307Z,101403.74
2019-05-10T21:19:25.861Z,101407.95
2019-05-10T21:22:34.479Z,101412.03
2019-05-10T21:25:43.037Z,101414.73
2019-05-10T21:28:51.725Z,101419.78
2019-05-10T21:32:00.439Z,101423.53
2019-05-10T21:35:08.927Z,101418.79
2019-05-10T21:38:32.950Z,101423.00
2019-05-10T21:41:38.123Z,101424.36
2019-05-10T21:44:46.748Z,101427.22
2019-05-10T21:47:55.447Z,101431.59
2019-05-10T21:51:04.128Z,101437.32
2019-05-10T21:54:12.770Z,101437.30
2019-05-10T21:57:21.658Z,101437.82
2019-05-10T22:00:35.146Z,101441.34
2019-05-10T22:03:43.686Z,101437.46
2019-05-10T22:06:52.327Z,101439.98
2019-05-10T22:10:11.315Z,101441.31
2019-05-10T22:13:19.924Z,101439.88
2019-05-10T22:16:28.519Z,101448.66
2019-05-10T22:19:37.242Z,101453.41
2019-05-10T22:22:47.167Z,101459.80
2019-05-10T22:25:54.762Z,101461.16
2019-05-10T22:29:03.498Z,101463.16
2019-05-10T22:32:11.990Z,101463.82
2019-05-10T22:35:20.611Z,101458.59
2019-05-10T22:38:30.360Z,101450.81
2019-05-10T22:41:38.969Z,101445.72
2019-05-10T22:44:47.645Z,101437.83
2019-05-10T22:47:56.532Z,101435.44
2019-05-10T22:51:05.163Z,101427.63
2019-05-10T22:54:14.355Z,101435.64
2019-05-10T22:57:22.976Z,101438.56
2019-05-10T23:00:42.416Z,101436.64
2019-05-10T23:03:50.974Z,101441.17
2019-05-10T23:06:59.569Z,101449.40
2019-05-10T23:10:08.845Z,101448.40
2019-05-10T23:13:17.557Z,101445.17
2019-05-10T23:16:26.169Z,101440.48
2019-05-10T23:19:34.905Z,101439.33
2019-05-10T23:22:43.494Z,101438.48
2019-05-10T23:25:52.213Z,101439.14
2019-05-10T23:29:01.051Z,101441.78
2019-05-10T23:32:09.741Z,101455.62
2019-05-10T23:35:18.363Z,101462.05
2019-05-10T23:38:27.087Z,101457.66
2019-05-10T23:41:35.838Z,101457.16
2019-05-10T23:44:44.576Z,101453.54
2019-05-10T23:48:03.361Z,101457.31
2019-05-10T23:51:11.980Z,101461.50
2019-05-10T23:54:20.500Z,101456.97
2019-05-10T23:57:29.263Z,101465.73
